createdAt,value
2019-01-21T00:01:39.741Z,-3.70
2019-01-21T00:04:12.476Z,-3.70
2019-01-21T00:06:45.191Z,-3.70
2019-01-21T00:09:14.784Z,-3.70
2019-01-21T00:11:44.407Z,-3.80
2019-01-21T00:14:13.908Z,-3.80
2019-01-21T00:16:43.493Z,-3.60
2019-01-21T00:19:13.129Z,-3.50
2019-01-21T00:21:42.941Z,-3.50
2019-01-21T00:24:12.680Z,-3.50
2019-01-21T00:26:42.573Z,-3.40
2019-01-21T00:29:12.330Z,-3.50
2019-01-21T00:31:42.086Z,-3.50
2019-01-21T00:34:11.754Z,-3.60
2019-01-21T00:36:41.520Z,-3.60
2019-01-21T00:39:11.570Z,-3.60
2019-01-21T00:41:41.486Z,-3.60
2019-01-21T00:44:11.144Z,-3.60
2019-01-21T00:46:40.731Z,-3.60
2019-01-21T00:49:10.310Z,-3.60
2019-01-21T00:51:40.281Z,-3.70
2019-01-21T00:54:09.993Z,-3.70
2019-01-21T00:56:39.622Z,-3.80
2019-01-21T00:59:09.209Z,-3.90
2019-01-21T01:01:38.931Z,-3.90
2019-01-21T01:04:08.487Z,-3.90
2019-01-21T01:06:40.559Z,-4.00
2019-01-21T01:09:10.166Z,-4.00
2019-01-21T01:11:39.796Z,-4.10
2019-01-21T01:14:09.439Z,-4.00
2019-01-21T01:16:38.970Z,-3.90
2019-01-21T01:19:08.520Z,-3.90
2019-01-21T01:21:38.369Z,-3.80
2019-01-21T01:24:08.090Z,-3.90
2019-01-21T01:26:37.948Z,-4.00
2019-01-21T01:29:07.985Z,-4.10
2019-01-21T01:31:37.571Z,-4.10
2019-01-21T01:34:07.268Z,-4.00
2019-01-21T01:36:36.838Z,-4.00
2019-01-21T01:39:08.296Z,-4.00
2019-01-21T01:41:38.035Z,-3.90
2019-01-21T01:44:07.955Z,-3.90
2019-01-21T01:46:37.797Z,-4.00
2019-01-21T01:49:07.712Z,-4.10
2019-01-21T01:51:37.656Z,-4.10
2019-01-21T01:54:07.231Z,-4.10
2019-01-21T01:56:36.978Z,-4.00
2019-01-21T01:59:06.530Z,-4.00
2019-01-21T02:01:36.388Z,-4.00
2019-01-21T02:04:06.302Z,-4.10
2019-01-21T02:06:36.084Z,-4.20
2019-01-21T02:09:08.073Z,-4.10
2019-01-21T02:11:38.003Z,-4.20
2019-01-21T02:14:07.694Z,-4.20
2019-01-21T02:16:37.327Z,-4.30
2019-01-21T02:19:07.050Z,-4.30
2019-01-21T02:21:39.144Z,-4.30
2019-01-21T02:24:09.251Z,-4.40
2019-01-21T02:26:51.043Z,-4.50
2019-01-21T02:30:01.863Z,-4.40
2019-01-21T02:33:10.351Z,-4.40
2019-01-21T02:36:10.009Z,-4.40
2019-01-21T02:39:13.949Z,-4.50
2019-01-21T02:42:12.447Z,-4.60
2019-01-21T02:45:02.777Z,-4.60
2019-01-21T02:48:02.663Z,-4.60
2019-01-21T02:51:11.311Z,-4.50
2019-01-21T02:54:33.955Z,-4.60
2019-01-21T02:57:26.262Z,-4.60
2019-01-21T03:00:12.023Z,-4.50
2019-01-21T03:03:18.572Z,-4.50
2019-01-21T03:06:49.841Z,-4.40
2019-01-21T03:09:54.473Z,-4.50
2019-01-21T03:12:54.217Z,-4.60
2019-01-21T03:15:38.808Z,-4.70
2019-01-21T03:18:55.230Z,-4.70
2019-01-21T03:22:16.574Z,-4.70
2019-01-21T03:25:17.821Z,-4.70
2019-01-21T03:28:22.983Z,-4.80
2019-01-21T03:31:28.016Z,-4.80
2019-01-21T03:34:36.790Z,-4.90
2019-01-21T03:37:42.076Z,-4.80
2019-01-21T03:40:51.471Z,-4.80
2019-01-21T03:44:19.854Z,-4.80
2019-01-21T03:47:17.379Z,-4.80
2019-01-21T03:50:32.339Z,-4.80
2019-01-21T03:53:38.571Z,-4.80
2019-01-21T03:56:20.077Z,-4.80
2019-01-21T03:59:19.554Z,-5.00
2019-01-21T04:02:34.157Z,-5.00
2019-01-21T04:05:22.915Z,-5.10
2019-01-21T04:08:27.358Z,-5.10
2019-01-21T04:11:24.609Z,-5.20
2019-01-21T04:14:36.570Z,-5.20
2019-01-21T04:17:59.447Z,-5.20
2019-01-21T04:20:45.505Z,-5.10
2019-01-21T04:23:56.121Z,-5.20
2019-01-21T04:26:38.906Z,-5.20
2019-01-21T04:29:39.331Z,-5.30
2019-01-21T04:32:36.461Z,-5.30
2019-01-21T04:35:44.726Z,-5.40
2019-01-21T04:38:53.105Z,-5.50
2019-01-21T04:41:36.447Z,-5.50
2019-01-21T04:44:34.828Z,-5.60
2019-01-21T04:47:39.781Z,-5.70
2019-01-21T04:50:56.854Z,-5.70
2019-01-21T04:54:00.470Z,-5.80
2019-01-21T04:57:11.486Z,-5.70
2019-01-21T05:00:25.266Z,-5.80
2019-01-21T05:03:26.131Z,-5.90
2019-01-21T05:06:40.185Z,-5.90
2019-01-21T05:09:28.366Z,-5.90
2019-01-21T05:12:22.181Z,-5.90
2019-01-21T05:15:37.649Z,-5.90
2019-01-21T05:18:42.969Z,-5.90
2019-01-21T05:21:50.737Z,-5.80
2019-01-21T05:25:02.182Z,-5.70
2019-01-21T05:28:02.867Z,-5.60
2019-01-21T05:31:10.617Z,-5.60
2019-01-21T05:34:22.392Z,-5.50
2019-01-21T05:37:34.299Z,-5.50
2019-01-21T05:40:31.324Z,-5.50
2019-01-21T05:43:31.041Z,-5.40
2019-01-21T05:46:29.372Z,-5.30
2019-01-21T05:49:28.935Z,-5.40
2019-01-21T05:52:32.152Z,-5.40
2019-01-21T05:55:43.055Z,-5.50
2019-01-21T05:58:35.878Z,-5.50
2019-01-21T06:01:52.430Z,-5.60
2019-01-21T06:04:36.322Z,-5.60
2019-01-21T06:07:52.886Z,-5.70
2019-01-21T06:10:54.057Z,-5.70
2019-01-21T06:14:06.029Z,-5.60
2019-01-21T06:16:42.793Z,-5.50
2019-01-21T06:20:03.206Z,-5.30
2019-01-21T06:23:05.917Z,-5.40
2019-01-21T06:26:06.943Z,-5.40
2019-01-21T06:29:13.402Z,-5.50
2019-01-21T06:32:00.985Z,-5.60
2019-01-21T06:35:11.751Z,-5.70
2019-01-21T06:38:21.156Z,-5.70
2019-01-21T06:41:17.689Z,-5.70
2019-01-21T06:44:15.106Z,-5.70
2019-01-21T06:47:28.408Z,-5.60
2019-01-21T06:50:26.346Z,-5.60
2019-01-21T06:53:42.711Z,-5.60
2019-01-21T06:56:39.774Z,-5.70
2019-01-21T07:00:02.729Z,-5.70
2019-01-21T07:03:16.718Z,-5.70
2019-01-21T07:06:08.009Z,-5.70
2019-01-21T07:09:08.209Z,-5.60
2019-01-21T07:12:25.479Z,-5.60
2019-01-21T07:15:34.860Z,-5.60
2019-01-21T07:18:40.431Z,-5.60
2019-01-21T07:21:57.300Z,-5.60
2019-01-21T07:24:58.494Z,-5.60
2019-01-21T07:27:58.048Z,-5.70
2019-01-21T07:30:59.993Z,-4.50
2019-01-21T07:33:59.184Z,-0.60
2019-01-21T07:37:22.270Z,-0.30
2019-01-21T07:40:44.590Z,-2.00
2019-01-21T07:43:33.799Z,-3.30
2019-01-21T07:46:28.962Z,-4.20
2019-01-21T07:49:44.071Z,-4.60
2019-01-21T07:52:55.804Z,-5.00
2019-01-21T07:55:59.067Z,-5.30
2019-01-21T07:58:55.291Z,-5.40
2019-01-21T08:01:58.864Z,-5.50
2019-01-21T08:04:52.341Z,-5.50
2019-01-21T08:07:33.010Z,-5.60
2019-01-21T08:11:04.572Z,-5.60
2019-01-21T08:14:49.656Z,-5.50
2019-01-21T08:18:08.995Z,-5.60
2019-01-21T08:21:13.004Z,-5.50
2019-01-21T08:24:05.457Z,-5.50
2019-01-21T08:27:10.757Z,-5.50
2019-01-21T08:30:16.336Z,-5.60
2019-01-21T08:33:19.446Z,-5.50
2019-01-21T08:36:26.123Z,-5.50
2019-01-21T08:39:46.242Z,-5.40
2019-01-21T08:43:02.558Z,-5.40
2019-01-21T08:45:56.998Z,-5.40
2019-01-21T08:49:12.684Z,-5.30
2019-01-21T08:52:10.836Z,-5.40
2019-01-21T08:54:54.605Z,-5.30
2019-01-21T08:57:56.622Z,-5.20
2019-01-21T09:00:51.678Z,-5.10
2019-01-21T09:03:49.745Z,-5.00
2019-01-21T09:06:51.133Z,-4.80
2019-01-21T09:09:57.498Z,-4.80
2019-01-21T09:13:06.304Z,-4.70
2019-01-21T09:16:11.063Z,-4.60
2019-01-21T09:18:55.764Z,-4.40
2019-01-21T09:21:56.263Z,-4.20
2019-01-21T09:24:47.980Z,-4.00
2019-01-21T09:27:52.171Z,-4.10
2019-01-21T09:31:17.546Z,-4.20
2019-01-21T09:34:11.622Z,-4.20
2019-01-21T09:37:02.330Z,-4.20
2019-01-21T09:39:57.953Z,-4.00
2019-01-21T09:42:57.862Z,-3.70
2019-01-21T09:45:50.618Z,-3.30
2019-01-21T09:48:18.476Z,-2.70
2019-01-21T09:50:49.002Z,-2.20
2019-01-21T09:53:18.617Z,-2.20
2019-01-21T09:55:50.511Z,-2.30
2019-01-21T09:58:24.000Z,-2.50
2019-01-21T10:00:53.570Z,-2.50
2019-01-21T10:03:23.653Z,-2.60
2019-01-21T10:05:56.593Z,-2.60
2019-01-21T10:09:18.786Z,-2.50
2019-01-21T10:12:25.734Z,-2.30
2019-01-21T10:15:34.082Z,-2.30
2019-01-21T10:18:34.316Z,-2.30
2019-01-21T10:21:27.393Z,-2.20
2019-01-21T10:24:46.783Z,-2.20
2019-01-21T10:28:04.605Z,-2.10
2019-01-21T10:31:08.332Z,-2.10
2019-01-21T10:34:09.356Z,-2.10
2019-01-21T10:37:26.055Z,-1.90
2019-01-21T10:40:29.804Z,-1.80
2019-01-21T10:43:20.269Z,-1.80
2019-01-21T10:46:40.763Z,-1.60
2019-01-21T10:49:34.396Z,-1.30
2019-01-21T10:52:38.625Z,-1.10
2019-01-21T10:55:33.112Z,-1.10
2019-01-21T10:58:14.304Z,-1.20
2019-01-21T11:01:23.158Z,-1.10
2019-01-21T11:04:36.360Z,-1.10
2019-01-21T11:07:58.940Z,-0.90
2019-01-21T11:11:00.737Z,-0.80
2019-01-21T11:14:13.160Z,-0.70
2019-01-21T11:17:39.476Z,-0.70
2019-01-21T11:20:39.397Z,-0.60
2019-01-21T11:23:25.387Z,-0.60
2019-01-21T11:26:38.674Z,-0.60
2019-01-21T11:29:19.356Z,-0.70
2019-01-21T11:32:29.876Z,-0.50
2019-01-21T11:35:26.409Z,-0.40
2019-01-21T11:38:32.037Z,0.00
2019-01-21T11:41:20.947Z,0.10
2019-01-21T11:44:36.902Z,0.10
2019-01-21T11:47:45.789Z,-0.10
2019-01-21T11:50:49.074Z,-0.20
2019-01-21T11:54:08.402Z,-0.20
2019-01-21T11:57:10.709Z,-0.20
2019-01-21T12:00:37.675Z,-0.10
2019-01-21T12:03:25.822Z,-0.20
2019-01-21T12:06:18.558Z,-0.10
2019-01-21T12:09:26.903Z,-0.20
2019-01-21T12:12:10.785Z,-0.10
2019-01-21T12:15:00.904Z,0.00
2019-01-21T12:18:13.135Z,0.10
2019-01-21T12:21:20.561Z,0.10
2019-01-21T12:24:26.488Z,0.00
2019-01-21T12:27:21.673Z,0.10
2019-01-21T12:30:37.236Z,0.20
2019-01-21T12:34:14.408Z,0.10
2019-01-21T12:37:22.032Z,0.10
2019-01-21T12:40:47.520Z,0.20
2019-01-21T12:43:34.118Z,0.10
2019-01-21T12:46:13.420Z,0.20
2019-01-21T12:49:07.642Z,0.40
2019-01-21T12:52:10.980Z,0.40
2019-01-21T12:55:24.494Z,0.40
2019-01-21T12:58:20.275Z,0.40
2019-01-21T13:01:05.813Z,0.40
2019-01-21T13:03:55.522Z,0.40
2019-01-21T13:06:50.575Z,0.40
2019-01-21T13:10:12.741Z,0.60
2019-01-21T13:13:27.530Z,0.50
2019-01-21T13:16:18.085Z,0.50
2019-01-21T13:19:13.646Z,0.60
2019-01-21T13:21:57.833Z,0.70
2019-01-21T13:24:52.591Z,0.70
2019-01-21T13:27:50.351Z,0.70
2019-01-21T13:30:46.749Z,0.70
2019-01-21T13:34:15.222Z,0.80
2019-01-21T13:37:43.546Z,0.80
2019-01-21T13:40:37.708Z,0.80
2019-01-21T13:43:32.228Z,0.80
2019-01-21T13:46:40.326Z,0.80
2019-01-21T13:49:38.180Z,0.80
2019-01-21T13:52:46.291Z,0.80
2019-01-21T13:55:44.200Z,0.80
2019-01-21T13:59:01.289Z,0.90
2019-01-21T14:01:52.300Z,0.90
2019-01-21T14:04:58.432Z,0.90
2019-01-21T14:07:53.854Z,0.90
2019-01-21T14:11:00.618Z,0.90
2019-01-21T14:14:06.800Z,0.80
2019-01-21T14:17:20.500Z,0.80
2019-01-21T14:20:23.976Z,0.90
2019-01-21T14:23:07.163Z,0.90
2019-01-21T14:26:21.880Z,0.90
2019-01-21T14:29:41.053Z,0.90
2019-01-21T14:32:29.384Z,0.90
2019-01-21T14:35:11.672Z,0.80
2019-01-21T14:38:34.174Z,0.90
2019-01-21T14:41:39.122Z,0.80
2019-01-21T14:45:07.227Z,0.80
2019-01-21T14:48:26.780Z,0.90
2019-01-21T14:51:50.091Z,0.90
2019-01-21T14:54:50.014Z,0.90
2019-01-21T14:57:59.468Z,0.90
2019-01-21T15:01:10.362Z,0.80
2019-01-21T15:03:51.024Z,0.80
2019-01-21T15:06:32.327Z,0.80
2019-01-21T15:09:21.065Z,0.70
2019-01-21T15:12:15.785Z,0.70
2019-01-21T15:15:21.616Z,0.70
2019-01-21T15:18:17.870Z,0.70
2019-01-21T15:21:11.399Z,0.70
2019-01-21T15:24:22.601Z,0.70
2019-01-21T15:27:06.094Z,0.60
2019-01-21T15:30:37.419Z,0.60
2019-01-21T15:33:28.045Z,0.50
2019-01-21T15:36:13.456Z,0.40
2019-01-21T15:39:24.211Z,0.50
2019-01-21T15:42:07.857Z,0.60
2019-01-21T15:44:54.501Z,0.50
2019-01-21T15:47:53.878Z,0.50
2019-01-21T15:50:33.398Z,0.40
2019-01-21T15:53:37.027Z,0.30
2019-01-21T15:56:31.999Z,0.30
2019-01-21T15:59:42.901Z,0.20
2019-01-21T16:02:27.517Z,0.20
2019-01-21T16:05:03.614Z,0.10
2019-01-21T16:08:16.234Z,0.10
2019-01-21T16:11:25.711Z,0.10
2019-01-21T16:14:05.752Z,0.10
2019-01-21T16:17:01.394Z,0.10
2019-01-21T16:20:21.291Z,0.00
2019-01-21T16:23:22.842Z,-0.20
2019-01-21T16:26:09.274Z,-0.20
2019-01-21T16:28:52.328Z,-0.10
2019-01-21T16:31:39.360Z,-0.20
2019-01-21T16:34:51.487Z,-0.30
2019-01-21T16:38:13.855Z,-0.30
2019-01-21T16:41:22.995Z,-0.20
2019-01-21T16:43:52.867Z,-0.20
2019-01-21T16:46:22.529Z,-0.30
2019-01-21T16:48:52.243Z,-0.20
2019-01-21T16:51:21.858Z,-0.30
2019-01-21T16:53:51.355Z,-0.30
2019-01-21T16:56:20.941Z,-0.30
2019-01-21T16:58:50.593Z,-0.30
2019-01-21T17:01:20.038Z,-0.30
2019-01-21T17:03:49.690Z,-0.40
2019-01-21T17:06:19.206Z,-0.30
2019-01-21T17:08:48.723Z,-0.30
2019-01-21T17:11:18.210Z,-0.40
2019-01-21T17:13:47.716Z,-0.50
2019-01-21T17:16:17.256Z,-0.60
2019-01-21T17:18:46.807Z,-0.60
2019-01-21T17:21:16.349Z,-0.60
2019-01-21T17:23:45.812Z,-0.60
2019-01-21T17:26:15.374Z,-0.50
2019-01-21T17:28:45.133Z,-0.60
2019-01-21T17:31:14.709Z,-0.60
2019-01-21T17:33:44.342Z,-0.70
2019-01-21T17:36:13.936Z,-0.70
2019-01-21T17:38:43.545Z,-0.70
2019-01-21T17:41:13.154Z,-0.70
2019-01-21T17:43:42.862Z,-0.70
2019-01-21T17:46:12.430Z,-0.80
2019-01-21T17:48:41.946Z,-0.80
2019-01-21T17:51:11.588Z,-0.80
2019-01-21T17:53:41.211Z,-0.80
2019-01-21T17:56:10.752Z,-0.80
2019-01-21T17:58:40.343Z,-0.80
2019-01-21T18:01:10.254Z,-0.80
2019-01-21T18:03:40.012Z,-0.90
2019-01-21T18:06:09.558Z,-0.90
2019-01-21T18:08:39.178Z,-1.00
2019-01-21T18:11:08.810Z,-1.00
2019-01-21T18:13:38.422Z,-1.10
2019-01-21T18:16:08.168Z,-1.10
2019-01-21T18:18:37.744Z,-1.00
2019-01-21T18:21:07.590Z,-1.10
2019-01-21T18:23:37.108Z,-1.10
2019-01-21T18:26:06.625Z,-1.10
2019-01-21T18:28:36.121Z,-1.10
2019-01-21T18:31:05.728Z,-1.10
2019-01-21T18:33:35.366Z,-1.20
2019-01-21T18:36:05.062Z,-1.10
2019-01-21T18:38:34.662Z,-1.10
2019-01-21T18:41:04.311Z,-1.20
2019-01-21T18:43:33.873Z,-1.30
2019-01-21T18:46:03.432Z,-1.30
2019-01-21T18:48:33.031Z,-1.30
2019-01-21T18:51:02.594Z,-1.30
2019-01-21T18:53:32.203Z,-1.30
2019-01-21T18:56:01.783Z,-1.30
2019-01-21T18:58:31.346Z,-1.40
2019-01-21T19:01:01.134Z,-1.40
2019-01-21T19:03:30.640Z,-1.30
2019-01-21T19:06:00.511Z,-1.30
2019-01-21T19:08:30.271Z,-1.40
2019-01-21T19:10:59.828Z,-1.40
2019-01-21T19:13:29.406Z,-1.50
2019-01-21T19:16:02.013Z,-1.50
2019-01-21T19:18:31.568Z,-1.40
2019-01-21T19:21:01.307Z,-1.40
2019-01-21T19:23:31.041Z,-1.40
2019-01-21T19:26:00.620Z,-1.50
2019-01-21T19:28:30.203Z,-1.40
2019-01-21T19:30:59.728Z,-1.40
2019-01-21T19:33:29.274Z,-1.50
2019-01-21T19:35:58.965Z,-1.50
2019-01-21T19:38:28.444Z,-1.50
2019-01-21T19:40:58.075Z,-1.60
2019-01-21T19:43:27.509Z,-1.60
2019-01-21T19:45:57.139Z,-1.60
2019-01-21T19:48:26.746Z,-1.50
2019-01-21T19:50:56.378Z,-1.60
2019-01-21T19:53:25.955Z,-1.60
2019-01-21T19:55:55.536Z,-1.60
2019-01-21T19:58:25.207Z,-1.60
2019-01-21T20:00:54.791Z,-1.60
2019-01-21T20:03:24.267Z,-1.70
2019-01-21T20:05:53.797Z,-1.80
2019-01-21T20:08:23.314Z,-1.80
2019-01-21T20:10:52.805Z,-1.90
2019-01-21T20:13:22.420Z,-1.90
2019-01-21T20:15:52.022Z,-1.90
2019-01-21T20:18:21.575Z,-1.80
2019-01-21T20:20:51.170Z,-1.90
2019-01-21T20:23:20.674Z,-1.90
2019-01-21T20:25:50.327Z,-2.00
2019-01-21T20:28:19.916Z,-1.90
2019-01-21T20:30:49.518Z,-1.90
2019-01-21T20:33:19.071Z,-1.90
2019-01-21T20:35:48.672Z,-1.90
2019-01-21T20:38:18.180Z,-2.00
2019-01-21T20:40:47.760Z,-2.10
2019-01-21T20:43:17.324Z,-1.40
2019-01-21T20:45:46.905Z,-1.50
2019-01-21T20:48:16.538Z,-1.70
2019-01-21T20:50:46.366Z,-1.90
2019-01-21T20:53:16.045Z,-1.90
2019-01-21T20:55:45.847Z,-1.90
2019-01-21T20:58:15.509Z,-1.90
2019-01-21T21:00:45.469Z,-1.90
2019-01-21T21:03:15.213Z,-1.90
2019-01-21T21:05:45.394Z,-1.90
2019-01-21T21:08:15.353Z,-1.90
2019-01-21T21:10:45.172Z,-1.90
2019-01-21T21:13:15.002Z,-1.90
2019-01-21T21:15:44.657Z,-1.90
2019-01-21T21:18:15.254Z,-1.80
2019-01-21T21:20:45.862Z,-1.80
2019-01-21T21:23:15.667Z,-1.80
2019-01-21T21:25:45.349Z,-1.80
2019-01-21T21:28:15.125Z,-1.70
2019-01-21T21:30:44.855Z,-1.70
2019-01-21T21:33:16.724Z,-1.70
2019-01-21T21:35:46.432Z,-1.80
2019-01-21T21:38:17.101Z,-1.80
2019-01-21T21:40:46.831Z,-1.90
2019-01-21T21:43:16.456Z,-1.90
2019-01-21T21:45:46.406Z,-1.90
2019-01-21T21:48:21.346Z,-1.80
2019-01-21T21:50:51.402Z,-1.80
2019-01-21T21:53:21.079Z,-1.80
2019-01-21T21:55:51.212Z,-1.70
2019-01-21T21:58:20.851Z,-1.70
2019-01-21T22:00:50.519Z,-1.70
2019-01-21T22:03:20.627Z,-1.70
2019-01-21T22:05:50.186Z,-1.60
2019-01-21T22:08:20.261Z,-1.50
2019-01-21T22:10:49.951Z,-1.60
2019-01-21T22:13:19.956Z,-1.60
2019-01-21T22:15:49.579Z,-1.60
2019-01-21T22:18:19.340Z,-1.60
2019-01-21T22:20:49.323Z,-1.70
2019-01-21T22:23:18.899Z,-1.90
2019-01-21T22:25:48.556Z,-2.00
2019-01-21T22:28:18.385Z,-2.10
2019-01-21T22:30:47.961Z,-2.20
2019-01-21T22:33:17.714Z,-2.20
2019-01-21T22:35:47.435Z,-2.20
2019-01-21T22:38:17.055Z,-2.30
2019-01-21T22:40:46.674Z,-2.40
2019-01-21T22:43:16.271Z,-2.50
2019-01-21T22:45:46.292Z,-2.50
2019-01-21T22:48:15.945Z,-2.50
2019-01-21T22:50:45.658Z,-2.60
2019-01-21T22:53:15.338Z,-2.60
2019-01-21T22:55:44.961Z,-2.60
2019-01-21T22:58:14.505Z,-2.70
2019-01-21T23:01:43.260Z,-2.70
2019-01-21T23:04:13.135Z,-2.70
2019-01-21T23:06:42.691Z,-2.70
2019-01-21T23:09:12.590Z,-2.70
2019-01-21T23:11:42.141Z,-2.70
2019-01-21T23:14:12.419Z,-2.60
2019-01-21T23:16:43.281Z,-2.60
2019-01-21T23:19:12.887Z,-2.50
2019-01-21T23:21:42.545Z,-2.50
2019-01-21T23:24:12.181Z,-2.40
2019-01-21T23:26:41.910Z,-2.30
2019-01-21T23:29:11.726Z,-2.30
2019-01-21T23:31:41.372Z,-2.30
2019-01-21T23:34:10.915Z,-2.40
2019-01-21T23:36:40.543Z,-2.40
2019-01-21T23:39:10.027Z,-2.40
2019-01-21T23:41:39.589Z,-2.40
2019-01-21T23:44:09.582Z,-2.30
2019-01-21T23:46:39.057Z,-2.40
2019-01-21T23:49:08.699Z,-2.30
2019-01-21T23:51:38.167Z,-2.20
2019-01-21T23:54:08.113Z,-2.30
2019-01-21T23:56:37.668Z,-2.30
2019-01-21T23:59:07.459Z,-2.40
